HTIR/IRI METAR and TAF weather

Enter ICAO airport designator
Station Type Date Time Source
HTIR METAR 2019/06/20 06:00 UTC NOAA

HTIR 200600Z 14010KT 9999 FEW018 19/10 Q1024


Station Type Date Time Source
HTIR Decoded METAR 2019/06/20 06:00 UTC NOAA

Iringa, Tanzania (HTIR) 07-40S 035-45E 1428M
Jun 20, 2019 - 02:00 AM EDT / 2019.06.20 0600 UTC
Wind: from the SE (140 degrees) at 12 MPH (10 KT):0
Visibility: greater than 7 mile(s):0
Sky conditions: mostly clear
Temperature: 66 F (19 C)
Dew Point: 50 F (10 C)
Relative Humidity: 55%
Pressure (altimeter): 30.24 in. Hg (1024 hPa)
ob: HTIR 200600Z 14010KT 9999 FEW018 19/10 Q1024
cycle: 6

Station Type Date Time Source
HTIR TAF UTC NOAA

Error!

Example: see airport list